sensor_id;sensor_type;location;lat;lon;timestamp;P1;durP1;ratioP1;P2;durP2;ratioP2
43070;SDS011;36278;47.952;21.714;2023-02-15T00:00:52;29.90;;;20.27;;
43070;SDS011;36278;47.952;21.714;2023-02-15T00:03:21;26.30;;;19.00;;
43070;SDS011;36278;47.952;21.714;2023-02-15T00:05:46;28.17;;;19.53;;
43070;SDS011;36278;47.952;21.714;2023-02-15T00:08:12;28.37;;;19.73;;
43070;SDS011;36278;47.952;21.714;2023-02-15T00:10:37;28.87;;;18.73;;
43070;SDS011;36278;47.952;21.714;2023-02-15T00:13:03;31.53;;;19.80;;
43070;SDS011;36278;47.952;21.714;2023-02-15T00:15:28;29.80;;;20.03;;
43070;SDS011;36278;47.952;21.714;2023-02-15T00:17:54;31.93;;;20.13;;
43070;SDS011;36278;47.952;21.714;2023-02-15T00:20:21;29.90;;;18.93;;
43070;SDS011;36278;47.952;21.714;2023-02-15T00:22:47;28.80;;;19.70;;
43070;SDS011;36278;47.952;21.714;2023-02-15T00:25:12;30.90;;;20.50;;
43070;SDS011;36278;47.952;21.714;2023-02-15T00:27:38;30.07;;;19.07;;
43070;SDS011;36278;47.952;21.714;2023-02-15T00:30:03;32.60;;;21.03;;
43070;SDS011;36278;47.952;21.714;2023-02-15T00:32:30;33.63;;;20.37;;
43070;SDS011;36278;47.952;21.714;2023-02-15T00:34:56;28.93;;;19.80;;
43070;SDS011;36278;47.952;21.714;2023-02-15T00:37:21;30.60;;;20.43;;
43070;SDS011;36278;47.952;21.714;2023-02-15T00:39:47;32.73;;;20.87;;
43070;SDS011;36278;47.952;21.714;2023-02-15T00:42:12;30.53;;;19.70;;
43070;SDS011;36278;47.952;21.714;2023-02-15T00:44:38;32.87;;;20.00;;
43070;SDS011;36278;47.952;21.714;2023-02-15T00:47:03;30.03;;;19.80;;
43070;SDS011;36278;47.952;21.714;2023-02-15T00:49:29;32.30;;;19.43;;
43070;SDS011;36278;47.952;21.714;2023-02-15T00:51:54;28.47;;;19.03;;
43070;SDS011;36278;47.952;21.714;2023-02-15T00:54:20;31.93;;;20.13;;
43070;SDS011;36278;47.952;21.714;2023-02-15T00:56:45;29.03;;;19.53;;
43070;SDS011;36278;47.952;21.714;2023-02-15T00:59:11;28.73;;;19.17;;
43070;SDS011;36278;47.952;21.714;2023-02-15T01:01:36;33.60;;;20.60;;
43070;SDS011;36278;47.952;21.714;2023-02-15T01:04:02;31.90;;;19.07;;
43070;SDS011;36278;47.952;21.714;2023-02-15T01:06:27;34.43;;;20.13;;
43070;SDS011;36278;47.952;21.714;2023-02-15T01:08:52;30.10;;;19.37;;
43070;SDS011;36278;47.952;21.714;2023-02-15T01:11:19;28.87;;;19.80;;
43070;SDS011;36278;47.952;21.714;2023-02-15T01:13:47;33.73;;;19.77;;
43070;SDS011;36278;47.952;21.714;2023-02-15T01:16:23;27.20;;;18.93;;
43070;SDS011;36278;47.952;21.714;2023-02-15T01:18:51;31.30;;;19.00;;
43070;SDS011;36278;47.952;21.714;2023-02-15T01:21:17;29.60;;;19.90;;
43070;SDS011;36278;47.952;21.714;2023-02-15T01:23:45;29.27;;;18.57;;
43070;SDS011;36278;47.952;21.714;2023-02-15T01:26:11;27.27;;;18.97;;
43070;SDS011;36278;47.952;21.714;2023-02-15T01:28:37;30.50;;;20.07;;
43070;SDS011;36278;47.952;21.714;2023-02-15T01:31:10;31.17;;;20.20;;
43070;SDS011;36278;47.952;21.714;2023-02-15T01:33:40;28.40;;;19.20;;
43070;SDS011;36278;47.952;21.714;2023-02-15T01:36:06;27.40;;;19.20;;
43070;SDS011;36278;47.952;21.714;2023-02-15T01:38:31;26.03;;;18.87;;
43070;SDS011;36278;47.952;21.714;2023-02-15T01:40:57;29.37;;;19.17;;
43070;SDS011;36278;47.952;21.714;2023-02-15T01:43:42;30.10;;;19.20;;
43070;SDS011;36278;47.952;21.714;2023-02-15T01:46:14;30.43;;;19.83;;
43070;SDS011;36278;47.952;21.714;2023-02-15T01:48:45;30.47;;;19.87;;
43070;SDS011;36278;47.952;21.714;2023-02-15T01:51:13;31.23;;;19.90;;
43070;SDS011;36278;47.952;21.714;2023-02-15T01:53:42;27.53;;;18.83;;
43070;SDS011;36278;47.952;21.714;2023-02-15T01:56:17;28.77;;;18.90;;
43070;SDS011;36278;47.952;21.714;2023-02-15T01:58:46;28.60;;;20.33;;
43070;SDS011;36278;47.952;21.714;2023-02-15T02:01:12;29.57;;;20.00;;
43070;SDS011;36278;47.952;21.714;2023-02-15T02:03:43;29.47;;;19.83;;
43070;SDS011;36278;47.952;21.714;2023-02-15T02:06:13;30.70;;;20.43;;
43070;SDS011;36278;47.952;21.714;2023-02-15T02:08:39;29.10;;;19.43;;
43070;SDS011;36278;47.952;21.714;2023-02-15T02:11:12;38.43;;;20.07;;
43070;SDS011;36278;47.952;21.714;2023-02-15T02:13:39;30.40;;;19.77;;
43070;SDS011;36278;47.952;21.714;2023-02-15T02:18:48;30.17;;;20.63;;
43070;SDS011;36278;47.952;21.714;2023-02-15T02:34:51;31.27;;;20.63;;
43070;SDS011;36278;47.952;21.714;2023-02-15T02:37:23;34.87;;;20.93;;
43070;SDS011;36278;47.952;21.714;2023-02-15T02:39:57;32.57;;;21.07;;
43070;SDS011;36278;47.952;21.714;2023-02-15T02:42:43;38.67;;;21.95;;
43070;SDS011;36278;47.952;21.714;2023-02-15T02:45:22;31.80;;;21.23;;
43070;SDS011;36278;47.952;21.714;2023-02-15T02:48:03;33.30;;;22.37;;
43070;SDS011;36278;47.952;21.714;2023-02-15T02:50:38;34.20;;;21.53;;
43070;SDS011;36278;47.952;21.714;2023-02-15T02:53:04;32.47;;;22.10;;
43070;SDS011;36278;47.952;21.714;2023-02-15T02:55:38;32.77;;;22.30;;
43070;SDS011;36278;47.952;21.714;2023-02-15T03:06:08;33.87;;;21.97;;
43070;SDS011;36278;47.952;21.714;2023-02-15T03:08:38;33.63;;;22.43;;
43070;SDS011;36278;47.952;21.714;2023-02-15T03:11:08;38.13;;;22.60;;
43070;SDS011;36278;47.952;21.714;2023-02-15T03:13:34;34.37;;;22.07;;
43070;SDS011;36278;47.952;21.714;2023-02-15T03:16:01;37.20;;;23.80;;
43070;SDS011;36278;47.952;21.714;2023-02-15T03:18:50;36.17;;;22.10;;
43070;SDS011;36278;47.952;21.714;2023-02-15T03:21:23;30.77;;;21.73;;
43070;SDS011;36278;47.952;21.714;2023-02-15T03:23:54;32.97;;;22.07;;
43070;SDS011;36278;47.952;21.714;2023-02-15T03:26:24;39.13;;;24.20;;
43070;SDS011;36278;47.952;21.714;2023-02-15T03:28:52;36.27;;;23.70;;
43070;SDS011;36278;47.952;21.714;2023-02-15T03:31:21;37.73;;;24.40;;
43070;SDS011;36278;47.952;21.714;2023-02-15T03:33:56;38.43;;;25.23;;
43070;SDS011;36278;47.952;21.714;2023-02-15T03:42:19;34.60;;;24.40;;
43070;SDS011;36278;47.952;21.714;2023-02-15T03:44:58;33.17;;;23.57;;
43070;SDS011;36278;47.952;21.714;2023-02-15T03:47:34;38.77;;;24.17;;
43070;SDS011;36278;47.952;21.714;2023-02-15T03:52:59;35.93;;;24.07;;
43070;SDS011;36278;47.952;21.714;2023-02-15T03:55:28;39.77;;;25.37;;
43070;SDS011;36278;47.952;21.714;2023-02-15T03:57:54;36.70;;;23.87;;
43070;SDS011;36278;47.952;21.714;2023-02-15T04:00:40;37.80;;;23.83;;
43070;SDS011;36278;47.952;21.714;2023-02-15T04:03:39;37.57;;;24.23;;
43070;SDS011;36278;47.952;21.714;2023-02-15T04:06:08;36.63;;;25.00;;
43070;SDS011;36278;47.952;21.714;2023-02-15T04:08:34;39.80;;;25.83;;
43070;SDS011;36278;47.952;21.714;2023-02-15T04:11:18;34.53;;;24.00;;
43070;SDS011;36278;47.952;21.714;2023-02-15T04:13:43;35.97;;;24.23;;
43070;SDS011;36278;47.952;21.714;2023-02-15T04:16:09;40.10;;;24.57;;
43070;SDS011;36278;47.952;21.714;2023-02-15T04:18:41;37.37;;;24.47;;
43070;SDS011;36278;47.952;21.714;2023-02-15T04:21:27;41.30;;;24.80;;
43070;SDS011;36278;47.952;21.714;2023-02-15T04:24:13;40.47;;;25.53;;
43070;SDS011;36278;47.952;21.714;2023-02-15T04:26:58;41.87;;;24.90;;
43070;SDS011;36278;47.952;21.714;2023-02-15T04:29:25;40.53;;;26.17;;
43070;SDS011;36278;47.952;21.714;2023-02-15T04:31:52;40.70;;;25.73;;
43070;SDS011;36278;47.952;21.714;2023-02-15T04:34:18;45.40;;;26.30;;
43070;SDS011;36278;47.952;21.714;2023-02-15T04:36:44;42.53;;;25.80;;
43070;SDS011;36278;47.952;21.714;2023-02-15T04:39:12;41.70;;;26.13;;
43070;SDS011;36278;47.952;21.714;2023-02-15T04:41:38;41.17;;;26.90;;
43070;SDS011;36278;47.952;21.714;2023-02-15T04:44:04;38.77;;;25.57;;
43070;SDS011;36278;47.952;21.714;2023-02-15T04:46:29;39.50;;;25.57;;
43070;SDS011;36278;47.952;21.714;2023-02-15T04:48:55;40.83;;;27.17;;
43070;SDS011;36278;47.952;21.714;2023-02-15T04:51:21;41.20;;;25.87;;
43070;SDS011;36278;47.952;21.714;2023-02-15T04:53:47;38.73;;;25.93;;
43070;SDS011;36278;47.952;21.714;2023-02-15T04:56:12;43.03;;;25.60;;
43070;SDS011;36278;47.952;21.714;2023-02-15T04:58:38;38.60;;;25.60;;
43070;SDS011;36278;47.952;21.714;2023-02-15T05:01:06;43.40;;;27.20;;
43070;SDS011;36278;47.952;21.714;2023-02-15T05:03:32;39.03;;;25.93;;
43070;SDS011;36278;47.952;21.714;2023-02-15T05:05:58;42.43;;;28.13;;
43070;SDS011;36278;47.952;21.714;2023-02-15T05:08:23;39.00;;;26.23;;
43070;SDS011;36278;47.952;21.714;2023-02-15T05:10:49;39.77;;;26.07;;
43070;SDS011;36278;47.952;21.714;2023-02-15T05:13:15;44.33;;;27.17;;
43070;SDS011;36278;47.952;21.714;2023-02-15T05:15:40;42.10;;;26.80;;
43070;SDS011;36278;47.952;21.714;2023-02-15T05:18:06;41.97;;;26.77;;
43070;SDS011;36278;47.952;21.714;2023-02-15T05:20:32;41.57;;;25.73;;
43070;SDS011;36278;47.952;21.714;2023-02-15T05:22:58;43.17;;;26.53;;
43070;SDS011;36278;47.952;21.714;2023-02-15T05:25:24;40.73;;;27.47;;
43070;SDS011;36278;47.952;21.714;2023-02-15T05:28:08;40.77;;;27.40;;
43070;SDS011;36278;47.952;21.714;2023-02-15T05:30:44;44.60;;;27.33;;
43070;SDS011;36278;47.952;21.714;2023-02-15T05:33:11;40.47;;;26.60;;
43070;SDS011;36278;47.952;21.714;2023-02-15T05:35:36;43.10;;;27.07;;
43070;SDS011;36278;47.952;21.714;2023-02-15T05:38:02;42.77;;;26.47;;
43070;SDS011;36278;47.952;21.714;2023-02-15T05:40:27;42.77;;;27.33;;
43070;SDS011;36278;47.952;21.714;2023-02-15T05:42:53;43.43;;;27.20;;
43070;SDS011;36278;47.952;21.714;2023-02-15T05:45:18;45.23;;;27.67;;
43070;SDS011;36278;47.952;21.714;2023-02-15T05:47:44;41.10;;;26.90;;
43070;SDS011;36278;47.952;21.714;2023-02-15T05:50:09;53.90;;;32.70;;
43070;SDS011;36278;47.952;21.714;2023-02-15T05:52:36;46.07;;;27.17;;
43070;SDS011;36278;47.952;21.714;2023-02-15T05:55:02;47.47;;;28.33;;
43070;SDS011;36278;47.952;21.714;2023-02-15T05:57:28;42.83;;;28.50;;
43070;SDS011;36278;47.952;21.714;2023-02-15T05:59:54;45.47;;;27.90;;
43070;SDS011;36278;47.952;21.714;2023-02-15T06:02:19;42.60;;;27.00;;
43070;SDS011;36278;47.952;21.714;2023-02-15T06:04:44;42.53;;;28.10;;
43070;SDS011;36278;47.952;21.714;2023-02-15T06:07:10;41.23;;;26.47;;
43070;SDS011;36278;47.952;21.714;2023-02-15T06:09:36;43.33;;;28.33;;
43070;SDS011;36278;47.952;21.714;2023-02-15T06:12:01;43.40;;;28.00;;
43070;SDS011;36278;47.952;21.714;2023-02-15T06:14:27;42.93;;;28.23;;
43070;SDS011;36278;47.952;21.714;2023-02-15T06:16:52;47.13;;;27.27;;
43070;SDS011;36278;47.952;21.714;2023-02-15T06:19:18;46.90;;;28.97;;
43070;SDS011;36278;47.952;21.714;2023-02-15T06:21:44;48.20;;;31.93;;
43070;SDS011;36278;47.952;21.714;2023-02-15T06:24:10;46.70;;;29.97;;
43070;SDS011;36278;47.952;21.714;2023-02-15T06:26:35;47.27;;;30.17;;
43070;SDS011;36278;47.952;21.714;2023-02-15T06:29:01;49.80;;;31.40;;
43070;SDS011;36278;47.952;21.714;2023-02-15T06:31:27;54.87;;;31.80;;
43070;SDS011;36278;47.952;21.714;2023-02-15T06:33:52;56.50;;;35.83;;
43070;SDS011;36278;47.952;21.714;2023-02-15T06:36:25;58.55;;;34.00;;
43070;SDS011;36278;47.952;21.714;2023-02-15T06:38:50;53.10;;;33.40;;
43070;SDS011;36278;47.952;21.714;2023-02-15T06:41:16;51.77;;;32.50;;
43070;SDS011;36278;47.952;21.714;2023-02-15T06:43:41;47.40;;;33.03;;
43070;SDS011;36278;47.952;21.714;2023-02-15T06:46:07;49.43;;;31.50;;
43070;SDS011;36278;47.952;21.714;2023-02-15T06:48:32;54.23;;;32.47;;
43070;SDS011;36278;47.952;21.714;2023-02-15T06:50:58;47.93;;;32.10;;
43070;SDS011;36278;47.952;21.714;2023-02-15T06:53:24;50.43;;;33.23;;
43070;SDS011;36278;47.952;21.714;2023-02-15T06:55:49;49.93;;;31.63;;
43070;SDS011;36278;47.952;21.714;2023-02-15T06:58:15;47.07;;;31.80;;
43070;SDS011;36278;47.952;21.714;2023-02-15T07:00:40;49.50;;;31.87;;
43070;SDS011;36278;47.952;21.714;2023-02-15T07:03:06;51.23;;;31.73;;
43070;SDS011;36278;47.952;21.714;2023-02-15T07:05:32;47.70;;;31.67;;
43070;SDS011;36278;47.952;21.714;2023-02-15T07:07:59;47.97;;;30.97;;
43070;SDS011;36278;47.952;21.714;2023-02-15T07:10:26;45.47;;;31.20;;
43070;SDS011;36278;47.952;21.714;2023-02-15T07:12:54;51.00;;;31.87;;
43070;SDS011;36278;47.952;21.714;2023-02-15T07:15:20;47.90;;;32.73;;
43070;SDS011;36278;47.952;21.714;2023-02-15T07:17:47;48.40;;;31.43;;
43070;SDS011;36278;47.952;21.714;2023-02-15T07:20:16;50.10;;;32.47;;
43070;SDS011;36278;47.952;21.714;2023-02-15T07:22:43;44.17;;;30.17;;
43070;SDS011;36278;47.952;21.714;2023-02-15T07:25:09;45.07;;;30.13;;
43070;SDS011;36278;47.952;21.714;2023-02-15T07:27:36;43.73;;;30.63;;
43070;SDS011;36278;47.952;21.714;2023-02-15T07:30:02;45.50;;;29.07;;
43070;SDS011;36278;47.952;21.714;2023-02-15T07:32:30;41.60;;;28.37;;
43070;SDS011;36278;47.952;21.714;2023-02-15T07:34:57;42.13;;;27.07;;
43070;SDS011;36278;47.952;21.714;2023-02-15T07:37:24;43.37;;;27.97;;
43070;SDS011;36278;47.952;21.714;2023-02-15T07:39:50;44.83;;;29.50;;
43070;SDS011;36278;47.952;21.714;2023-02-15T07:42:16;58.70;;;32.30;;
43070;SDS011;36278;47.952;21.714;2023-02-15T07:44:43;40.03;;;27.83;;
43070;SDS011;36278;47.952;21.714;2023-02-15T07:47:08;46.77;;;28.33;;
43070;SDS011;36278;47.952;21.714;2023-02-15T07:49:34;41.40;;;27.17;;
43070;SDS011;36278;47.952;21.714;2023-02-15T07:52:00;41.47;;;26.73;;
43070;SDS011;36278;47.952;21.714;2023-02-15T07:54:27;42.43;;;27.27;;
43070;SDS011;36278;47.952;21.714;2023-02-15T07:56:52;36.30;;;26.13;;
43070;SDS011;36278;47.952;21.714;2023-02-15T07:59:18;39.40;;;26.70;;
43070;SDS011;36278;47.952;21.714;2023-02-15T08:01:43;44.53;;;27.83;;
43070;SDS011;36278;47.952;21.714;2023-02-15T08:04:09;38.33;;;26.07;;
43070;SDS011;36278;47.952;21.714;2023-02-15T08:06:36;44.30;;;26.20;;
43070;SDS011;36278;47.952;21.714;2023-02-15T08:09:03;40.60;;;26.90;;
43070;SDS011;36278;47.952;21.714;2023-02-15T08:11:31;42.17;;;27.43;;
43070;SDS011;36278;47.952;21.714;2023-02-15T08:16:30;38.50;;;26.60;;
43070;SDS011;36278;47.952;21.714;2023-02-15T08:18:59;38.80;;;26.97;;
43070;SDS011;36278;47.952;21.714;2023-02-15T08:21:28;40.53;;;26.07;;
43070;SDS011;36278;47.952;21.714;2023-02-15T08:23:54;40.77;;;26.33;;
43070;SDS011;36278;47.952;21.714;2023-02-15T08:26:21;36.10;;;24.97;;
43070;SDS011;36278;47.952;21.714;2023-02-15T08:28:48;38.53;;;27.07;;
43070;SDS011;36278;47.952;21.714;2023-02-15T08:31:15;41.17;;;26.70;;
43070;SDS011;36278;47.952;21.714;2023-02-15T08:33:42;35.90;;;24.27;;
43070;SDS011;36278;47.952;21.714;2023-02-15T08:36:12;34.13;;;25.10;;
43070;SDS011;36278;47.952;21.714;2023-02-15T08:38:39;35.37;;;24.57;;
43070;SDS011;36278;47.952;21.714;2023-02-15T08:43:39;34.93;;;24.67;;
43070;SDS011;36278;47.952;21.714;2023-02-15T08:46:06;37.33;;;25.33;;
43070;SDS011;36278;47.952;21.714;2023-02-15T08:48:32;38.40;;;27.40;;
43070;SDS011;36278;47.952;21.714;2023-02-15T08:50:58;34.87;;;25.13;;
43070;SDS011;36278;47.952;21.714;2023-02-15T08:53:24;36.53;;;25.37;;
43070;SDS011;36278;47.952;21.714;2023-02-15T08:55:59;37.03;;;25.10;;
43070;SDS011;36278;47.952;21.714;2023-02-15T08:58:24;33.57;;;23.23;;
43070;SDS011;36278;47.952;21.714;2023-02-15T09:00:50;36.57;;;24.00;;
43070;SDS011;36278;47.952;21.714;2023-02-15T09:03:16;32.77;;;22.77;;
43070;SDS011;36278;47.952;21.714;2023-02-15T09:08:32;36.10;;;22.90;;
43070;SDS011;36278;47.952;21.714;2023-02-15T09:11:07;32.93;;;23.07;;
43070;SDS011;36278;47.952;21.714;2023-02-15T09:13:35;35.37;;;23.90;;
43070;SDS011;36278;47.952;21.714;2023-02-15T09:16:02;37.80;;;24.70;;
43070;SDS011;36278;47.952;21.714;2023-02-15T09:18:34;35.07;;;24.27;;
43070;SDS011;36278;47.952;21.714;2023-02-15T09:31:10;30.67;;;23.03;;
43070;SDS011;36278;47.952;21.714;2023-02-15T09:33:39;32.43;;;23.20;;
43070;SDS011;36278;47.952;21.714;2023-02-15T09:36:06;39.13;;;23.77;;
43070;SDS011;36278;47.952;21.714;2023-02-15T09:38:52;35.45;;;23.02;;
43070;SDS011;36278;47.952;21.714;2023-02-15T10:16:30;33.57;;;23.37;;
43070;SDS011;36278;47.952;21.714;2023-02-15T10:28:06;34.83;;;23.03;;
43070;SDS011;36278;47.952;21.714;2023-02-15T10:30:49;36.67;;;24.17;;
43070;SDS011;36278;47.952;21.714;2023-02-15T10:36:10;35.50;;;23.95;;
43070;SDS011;36278;47.952;21.714;2023-02-15T10:46:25;28.90;;;20.40;;
43070;SDS011;36278;47.952;21.714;2023-02-15T10:49:08;30.93;;;20.10;;
43070;SDS011;36278;47.952;21.714;2023-02-15T10:54:43;31.23;;;21.88;;
43070;SDS011;36278;47.952;21.714;2023-02-15T10:57:39;32.50;;;22.47;;
43070;SDS011;36278;47.952;21.714;2023-02-15T11:00:46;30.90;;;20.80;;
43070;SDS011;36278;47.952;21.714;2023-02-15T11:08:47;38.00;;;26.23;;
43070;SDS011;36278;47.952;21.714;2023-02-15T11:11:59;31.03;;;22.13;;
43070;SDS011;36278;47.952;21.714;2023-02-15T11:14:57;31.10;;;22.90;;
43070;SDS011;36278;47.952;21.714;2023-02-15T11:17:06;31.13;;;21.77;;
43070;SDS011;36278;47.952;21.714;2023-02-15T11:19:50;33.20;;;22.40;;
43070;SDS011;36278;47.952;21.714;2023-02-15T11:22:28;31.87;;;21.17;;
43070;SDS011;36278;47.952;21.714;2023-02-15T11:24:57;34.57;;;23.03;;
43070;SDS011;36278;47.952;21.714;2023-02-15T11:27:27;34.03;;;22.83;;
43070;SDS011;36278;47.952;21.714;2023-02-15T11:30:01;28.77;;;20.60;;
43070;SDS011;36278;47.952;21.714;2023-02-15T11:40:24;29.07;;;21.43;;
43070;SDS011;36278;47.952;21.714;2023-02-15T11:42:51;32.80;;;22.03;;
43070;SDS011;36278;47.952;21.714;2023-02-15T11:47:53;29.03;;;21.20;;
43070;SDS011;36278;47.952;21.714;2023-02-15T11:50:28;31.40;;;21.60;;
43070;SDS011;36278;47.952;21.714;2023-02-15T11:53:01;33.03;;;22.43;;
43070;SDS011;36278;47.952;21.714;2023-02-15T11:55:31;32.83;;;21.40;;
43070;SDS011;36278;47.952;21.714;2023-02-15T12:00:45;25.93;;;19.63;;
43070;SDS011;36278;47.952;21.714;2023-02-15T12:03:17;31.37;;;20.73;;
43070;SDS011;36278;47.952;21.714;2023-02-15T12:05:47;25.47;;;20.00;;
43070;SDS011;36278;47.952;21.714;2023-02-15T12:08:20;27.13;;;18.95;;
43070;SDS011;36278;47.952;21.714;2023-02-15T12:10:57;27.67;;;20.83;;
43070;SDS011;36278;47.952;21.714;2023-02-15T12:13:29;30.13;;;21.00;;
43070;SDS011;36278;47.952;21.714;2023-02-15T12:15:55;27.53;;;20.00;;
43070;SDS011;36278;47.952;21.714;2023-02-15T12:18:32;30.87;;;20.03;;
43070;SDS011;36278;47.952;21.714;2023-02-15T12:21:11;24.50;;;19.03;;
43070;SDS011;36278;47.952;21.714;2023-02-15T12:23:49;31.00;;;23.33;;
43070;SDS011;36278;47.952;21.714;2023-02-15T12:26:26;24.17;;;18.20;;
43070;SDS011;36278;47.952;21.714;2023-02-15T12:28:54;26.30;;;20.57;;
43070;SDS011;36278;47.952;21.714;2023-02-15T12:31:27;24.47;;;19.50;;
43070;SDS011;36278;47.952;21.714;2023-02-15T12:33:59;27.67;;;19.47;;
43070;SDS011;36278;47.952;21.714;2023-02-15T12:36:29;27.97;;;19.00;;
43070;SDS011;36278;47.952;21.714;2023-02-15T12:39:16;23.33;;;18.13;;
43070;SDS011;36278;47.952;21.714;2023-02-15T12:41:46;21.83;;;17.57;;
43070;SDS011;36278;47.952;21.714;2023-02-15T12:47:05;24.63;;;19.27;;
43070;SDS011;36278;47.952;21.714;2023-02-15T12:49:34;25.53;;;19.43;;
43070;SDS011;36278;47.952;21.714;2023-02-15T12:52:05;26.17;;;19.90;;
43070;SDS011;36278;47.952;21.714;2023-02-15T12:54:48;23.53;;;19.10;;
43070;SDS011;36278;47.952;21.714;2023-02-15T13:00:24;28.73;;;19.90;;
43070;SDS011;36278;47.952;21.714;2023-02-15T13:08:02;26.53;;;19.27;;
43070;SDS011;36278;47.952;21.714;2023-02-15T13:10:39;25.37;;;19.10;;
43070;SDS011;36278;47.952;21.714;2023-02-15T13:13:22;26.33;;;20.03;;
43070;SDS011;36278;47.952;21.714;2023-02-15T13:15:51;21.42;;;18.17;;
43070;SDS011;36278;47.952;21.714;2023-02-15T13:18:26;25.47;;;17.93;;
43070;SDS011;36278;47.952;21.714;2023-02-15T13:20:56;24.07;;;19.57;;
43070;SDS011;36278;47.952;21.714;2023-02-15T13:23:29;26.43;;;19.90;;
43070;SDS011;36278;47.952;21.714;2023-02-15T13:25:57;26.17;;;19.77;;
43070;SDS011;36278;47.952;21.714;2023-02-15T13:28:26;26.00;;;20.20;;
43070;SDS011;36278;47.952;21.714;2023-02-15T13:31:04;25.77;;;20.47;;
43070;SDS011;36278;47.952;21.714;2023-02-15T13:33:38;26.00;;;18.90;;
43070;SDS011;36278;47.952;21.714;2023-02-15T13:36:28;24.70;;;19.43;;
43070;SDS011;36278;47.952;21.714;2023-02-15T13:56:04;28.10;;;20.83;;
43070;SDS011;36278;47.952;21.714;2023-02-15T14:01:24;27.33;;;20.20;;
43070;SDS011;36278;47.952;21.714;2023-02-15T14:18:02;29.83;;;22.70;;
43070;SDS011;36278;47.952;21.714;2023-02-15T14:23:42;26.77;;;22.10;;
43070;SDS011;36278;47.952;21.714;2023-02-15T14:26:43;27.80;;;21.60;;
43070;SDS011;36278;47.952;21.714;2023-02-15T14:29:41;31.87;;;20.87;;
43070;SDS011;36278;47.952;21.714;2023-02-15T14:32:20;39.77;;;29.33;;
43070;SDS011;36278;47.952;21.714;2023-02-15T14:34:53;32.40;;;21.03;;
43070;SDS011;36278;47.952;21.714;2023-02-15T14:39:59;27.20;;;21.37;;
43070;SDS011;36278;47.952;21.714;2023-02-15T14:42:53;30.73;;;23.17;;
43070;SDS011;36278;47.952;21.714;2023-02-15T14:45:30;29.77;;;23.00;;
43070;SDS011;36278;47.952;21.714;2023-02-15T14:50:37;29.63;;;23.13;;
43070;SDS011;36278;47.952;21.714;2023-02-15T14:53:15;29.10;;;22.63;;
43070;SDS011;36278;47.952;21.714;2023-02-15T15:01:39;34.20;;;22.57;;
43070;SDS011;36278;47.952;21.714;2023-02-15T15:06:39;27.67;;;20.58;;
43070;SDS011;36278;47.952;21.714;2023-02-15T15:09:11;25.37;;;20.43;;
43070;SDS011;36278;47.952;21.714;2023-02-15T15:11:51;28.93;;;21.17;;
43070;SDS011;36278;47.952;21.714;2023-02-15T15:14:39;35.40;;;22.97;;
43070;SDS011;36278;47.952;21.714;2023-02-15T15:17:05;26.97;;;21.90;;
43070;SDS011;36278;47.952;21.714;2023-02-15T15:22:19;25.50;;;21.70;;
43070;SDS011;36278;47.952;21.714;2023-02-15T15:24:49;31.70;;;22.63;;
43070;SDS011;36278;47.952;21.714;2023-02-15T15:32:40;33.43;;;23.97;;
43070;SDS011;36278;47.952;21.714;2023-02-15T15:49:56;36.73;;;25.50;;
43070;SDS011;36278;47.952;21.714;2023-02-15T15:52:23;37.40;;;25.30;;
43070;SDS011;36278;47.952;21.714;2023-02-15T15:55:36;34.90;;;25.47;;
43070;SDS011;36278;47.952;21.714;2023-02-15T15:57:42;39.57;;;26.10;;
43070;SDS011;36278;47.952;21.714;2023-02-15T16:03:00;35.77;;;26.43;;
43070;SDS011;36278;47.952;21.714;2023-02-15T16:05:26;40.93;;;27.17;;
43070;SDS011;36278;47.952;21.714;2023-02-15T16:07:51;38.67;;;26.37;;
43070;SDS011;36278;47.952;21.714;2023-02-15T16:12:50;41.15;;;26.70;;
43070;SDS011;36278;47.952;21.714;2023-02-15T16:15:17;45.70;;;29.83;;
43070;SDS011;36278;47.952;21.714;2023-02-15T16:17:56;46.13;;;27.93;;
43070;SDS011;36278;47.952;21.714;2023-02-15T16:20:24;48.93;;;31.80;;
43070;SDS011;36278;47.952;21.714;2023-02-15T16:23:03;43.90;;;29.63;;
43070;SDS011;36278;47.952;21.714;2023-02-15T16:28:40;47.07;;;32.10;;
43070;SDS011;36278;47.952;21.714;2023-02-15T16:31:14;46.57;;;30.97;;
43070;SDS011;36278;47.952;21.714;2023-02-15T16:33:41;49.67;;;33.83;;
43070;SDS011;36278;47.952;21.714;2023-02-15T16:36:20;48.77;;;32.73;;
43070;SDS011;36278;47.952;21.714;2023-02-15T16:41:25;52.27;;;33.97;;
43070;SDS011;36278;47.952;21.714;2023-02-15T16:43:59;59.37;;;34.73;;
43070;SDS011;36278;47.952;21.714;2023-02-15T16:46:49;54.23;;;34.40;;
43070;SDS011;36278;47.952;21.714;2023-02-15T16:49:23;56.70;;;36.37;;
43070;SDS011;36278;47.952;21.714;2023-02-15T16:52:04;67.10;;;43.10;;
43070;SDS011;36278;47.952;21.714;2023-02-15T16:54:32;67.33;;;42.37;;
43070;SDS011;36278;47.952;21.714;2023-02-15T16:56:58;68.60;;;42.93;;
43070;SDS011;36278;47.952;21.714;2023-02-15T17:01:59;70.20;;;41.97;;
43070;SDS011;36278;47.952;21.714;2023-02-15T17:04:29;63.00;;;41.17;;
43070;SDS011;36278;47.952;21.714;2023-02-15T17:07:15;63.93;;;43.27;;
43070;SDS011;36278;47.952;21.714;2023-02-15T17:09:54;62.90;;;40.63;;
43070;SDS011;36278;47.952;21.714;2023-02-15T17:15:25;73.83;;;47.90;;
43070;SDS011;36278;47.952;21.714;2023-02-15T17:17:54;67.27;;;45.40;;
43070;SDS011;36278;47.952;21.714;2023-02-15T17:20:22;71.20;;;44.10;;
43070;SDS011;36278;47.952;21.714;2023-02-15T17:22:49;68.30;;;45.60;;
43070;SDS011;36278;47.952;21.714;2023-02-15T17:25:19;71.07;;;46.20;;
43070;SDS011;36278;47.952;21.714;2023-02-15T17:30:24;69.53;;;45.73;;
43070;SDS011;36278;47.952;21.714;2023-02-15T17:32:57;74.33;;;46.23;;
43070;SDS011;36278;47.952;21.714;2023-02-15T17:35:26;68.77;;;44.87;;
43070;SDS011;36278;47.952;21.714;2023-02-15T17:40:43;72.73;;;45.07;;
43070;SDS011;36278;47.952;21.714;2023-02-15T17:43:09;69.77;;;43.80;;
43070;SDS011;36278;47.952;21.714;2023-02-15T17:45:44;65.90;;;45.37;;
43070;SDS011;36278;47.952;21.714;2023-02-15T17:48:18;66.97;;;44.73;;
43070;SDS011;36278;47.952;21.714;2023-02-15T17:50:46;65.77;;;44.40;;
43070;SDS011;36278;47.952;21.714;2023-02-15T17:53:12;74.03;;;44.73;;
43070;SDS011;36278;47.952;21.714;2023-02-15T17:55:41;67.47;;;44.47;;
43070;SDS011;36278;47.952;21.714;2023-02-15T17:58:11;69.10;;;43.87;;
43070;SDS011;36278;47.952;21.714;2023-02-15T18:00:44;76.07;;;44.87;;
43070;SDS011;36278;47.952;21.714;2023-02-15T18:03:50;74.00;;;45.17;;
43070;SDS011;36278;47.952;21.714;2023-02-15T18:06:36;70.53;;;46.33;;
43070;SDS011;36278;47.952;21.714;2023-02-15T18:09:23;77.03;;;45.93;;
43070;SDS011;36278;47.952;21.714;2023-02-15T18:12:24;74.13;;;45.70;;
43070;SDS011;36278;47.952;21.714;2023-02-15T18:14:51;65.40;;;44.50;;
43070;SDS011;36278;47.952;21.714;2023-02-15T18:17:19;69.30;;;45.30;;
43070;SDS011;36278;47.952;21.714;2023-02-15T18:19:49;71.67;;;45.67;;
43070;SDS011;36278;47.952;21.714;2023-02-15T18:22:15;73.03;;;47.00;;